Time;durP1;ratioP1;P1;durP2;ratioP2;P2;SDS_P1;SDS_P2;PMS_P1;PMS_P2;Temp;Humidity;BMP_temperature;BMP_pressure;BME280_temperature;BME280_humidity;BME280_pressure;Samples;Min_cycle;Max_cycle;Signal;HPM_P1;HPM_P2
2022/06/18 00:01:58;;;;;;;6.43;5.05;;;13.90;99.90;;;;;;4950872;29;20070;-81
2022/06/18 00:04:26;;;;;;;5.28;4.72;;;13.90;99.90;;;;;;4951852;29;20054;-81
2022/06/18 00:06:59;;;;;;;4.70;4.30;;;14.00;99.90;;;;;;4950912;29;20437;-80
2022/06/18 00:09:29;;;;;;;5.05;4.65;;;14.00;99.90;;;;;;4951510;28;20047;-80
2022/06/18 00:15:12;;;;;;;4.90;4.18;;;13.80;99.90;;;;;;4954270;29;20055;-80
2022/06/18 00:17:40;;;;;;;9.60;5.15;;;13.70;99.90;;;;;;4959275;28;20050;-80
2022/06/18 00:20:10;;;;;;;5.55;4.30;;;13.70;99.90;;;;;;4954605;29;20852;-80
2022/06/18 00:22:39;;;;;;;4.57;4.10;;;13.80;99.90;;;;;;4954249;29;20607;-80
2022/06/18 00:25:17;;;;;;;5.95;4.90;;;13.90;99.90;;;;;;4966480;28;20062;-80
2022/06/18 00:27:45;;;;;;;5.60;4.60;;;13.90;99.90;;;;;;4973494;28;20043;-80
2022/06/18 00:30:16;;;;;;;4.57;4.13;;;13.70;99.90;;;;;;4973642;28;20058;-80
2022/06/18 00:32:44;;;;;;;;;;;13.60;99.90;;;;;;4973493;28;20073;-79
2022/06/18 00:35:14;;;;;;;4.95;4.60;;;13.60;99.90;;;;;;4973245;28;19926;-84
2022/06/18 00:37:43;;;;;;;16.13;6.40;;;13.70;99.90;;;;;;4941079;28;20049;-84
2022/06/18 00:40:21;;;;;;;9.80;5.35;;;13.70;99.90;;;;;;4974571;28;20053;-84
2022/06/18 00:42:50;;;;;;;7.07;4.43;;;13.70;99.90;;;;;;4956167;28;20093;-84
2022/06/18 00:45:27;;;;;;;4.60;4.05;;;13.70;99.90;;;;;;4957621;28;20058;-84
2022/06/18 00:48:18;;;;;;;5.57;5.05;;;13.60;99.90;;;;;;4940624;28;20050;-84
2022/06/18 00:51:03;;;;;;;4.65;4.18;;;13.60;99.90;;;;;;4959998;28;20050;-84
2022/06/18 00:53:36;;;;;;;4.97;4.45;;;13.60;99.90;;;;;;4951281;28;20061;-84
2022/06/18 00:56:15;;;;;;;3.50;3.20;;;13.40;99.90;;;;;;4941123;28;20057;-85
2022/06/18 00:58:48;;;;;;;7.30;4.55;;;13.30;99.90;;;;;;4940208;28;20051;-84
2022/06/18 01:01:21;;;;;;;5.20;4.82;;;13.20;99.90;;;;;;4953412;29;20482;-84
2022/06/18 01:48:46;;;;;;;4.90;4.38;;;13.50;99.90;;;;;;4935830;29;20058;-80
2022/06/18 01:51:23;;;;;;;5.80;5.13;;;13.20;99.90;;;;;;4940762;29;20051;-80
2022/06/18 01:53:55;;;;;;;5.90;5.05;;;13.00;99.90;;;;;;4967871;28;20132;-80
2022/06/18 01:56:29;;;;;;;4.70;4.40;;;13.00;99.90;;;;;;4951489;29;20055;-80
2022/06/18 01:59:10;;;;;;;6.13;4.40;;;13.00;99.90;;;;;;4964339;28;20494;-80
2022/06/18 02:01:45;;;;;;;6.22;5.72;;;13.00;99.90;;;;;;4917334;29;20047;-80
2022/06/18 02:04:16;;;;;;;6.40;4.97;;;13.10;99.90;;;;;;4932403;29;20043;-80
2022/06/18 02:06:49;;;;;;;5.72;4.57;;;13.10;99.90;;;;;;4932473;29;20086;-80
2022/06/18 02:09:55;;;;;;;3.90;3.60;;;13.10;99.90;;;;;;4932521;29;20047;-80
2022/06/18 02:12:28;;;;;;;6.75;3.58;;;13.30;99.90;;;;;;4878121;29;20059;-80
2022/06/18 02:15:02;;;;;;;10.63;4.65;;;13.30;99.90;;;;;;4912354;29;20063;-80
2022/06/18 02:17:32;;;;;;;4.28;3.95;;;13.20;99.90;;;;;;4897011;29;20063;-80
2022/06/18 02:20:15;;;;;;;6.88;4.18;;;13.00;99.90;;;;;;4911991;29;20100;-80
2022/06/18 02:22:51;;;;;;;4.55;3.75;;;12.90;99.90;;;;;;4911765;29;20051;-80
2022/06/18 02:25:23;;;;;;;6.35;4.40;;;12.80;99.90;;;;;;4904727;29;20074;-80
2022/06/18 02:27:56;;;;;;;7.15;4.53;;;12.70;99.90;;;;;;4930271;29;20470;-80
2022/06/18 02:30:26;;;;;;;6.68;4.53;;;12.60;99.90;;;;;;4930989;29;20517;-80
2022/06/18 02:32:59;;;;;;;;;;;12.60;99.90;;;;;;4930903;29;20418;-80
2022/06/18 02:35:32;;;;;;;;;;;12.60;99.90;;;;;;4914944;29;20026;-80
2022/06/18 02:38:00;;;;;;;3.70;3.30;;;12.70;99.90;;;;;;4929824;29;19937;-81
2022/06/18 02:40:30;;;;;;;4.03;3.72;;;12.70;99.90;;;;;;4915431;29;20047;-80
2022/06/18 02:43:00;;;;;;;4.43;3.92;;;12.80;99.90;;;;;;4935879;29;20516;-80
2022/06/18 02:45:31;;;;;;;4.55;3.72;;;12.90;99.90;;;;;;4951478;29;20058;-80
2022/06/18 02:48:00;;;;;;;4.28;3.90;;;12.90;99.90;;;;;;4951804;29;20051;-80
2022/06/18 02:50:33;;;;;;;5.35;3.97;;;12.80;99.90;;;;;;4951792;29;20043;-80
2022/06/18 02:53:02;;;;;;;4.07;3.60;;;12.70;99.90;;;;;;4935232;29;20074;-80
2022/06/18 02:55:40;;;;;;;12.15;3.75;;;12.60;99.90;;;;;;4950287;29;20051;-80
2022/06/18 02:58:10;;;;;;;4.47;4.07;;;12.60;99.90;;;;;;4957330;28;20050;-80
2022/06/18 03:00:41;;;;;;;4.00;3.55;;;12.50;99.90;;;;;;4935321;29;20046;-80
2022/06/18 03:03:12;;;;;;;3.88;3.58;;;12.50;99.90;;;;;;4958266;28;20523;-80
2022/06/18 03:05:40;;;;;;;5.00;4.55;;;12.50;99.90;;;;;;4935371;29;20043;-79
2022/06/18 03:08:09;;;;;;;8.13;3.50;;;12.50;99.90;;;;;;4949800;29;20386;-79
2022/06/18 03:17:34;;;;;;;3.85;3.42;;;12.50;99.90;;;;;;4951562;29;20034;-79
2022/06/18 03:21:52;;;;;;;3.45;3.15;;;12.60;99.90;;;;;;4950150;29;20062;-79
2022/06/18 03:26:57;;;;;;;5.32;3.20;;;12.50;99.90;;;;;;4954797;28;20058;-79
2022/06/18 03:34:20;;;;;;;5.13;3.90;;;12.50;99.90;;;;;;4950678;28;20400;-79
2022/06/18 03:36:49;;;;;;;3.92;3.55;;;12.50;99.90;;;;;;4950834;29;20063;-79
2022/06/18 03:39:17;;;;;;;3.65;3.35;;;12.50;99.90;;;;;;4933709;29;20058;-79
2022/06/18 03:41:45;;;;;;;7.28;2.97;;;12.50;99.90;;;;;;4950136;29;20043;-79
2022/06/18 03:44:13;;;;;;;3.10;2.90;;;12.50;99.90;;;;;;4933647;29;20405;-79
2022/06/18 03:46:43;;;;;;;6.45;3.42;;;12.40;99.90;;;;;;4921956;29;20043;-79
2022/06/18 03:49:24;;;;;;;3.35;3.05;;;12.50;99.90;;;;;;4938026;29;20070;-79
2022/06/18 03:51:54;;;;;;;4.53;4.03;;;12.60;99.90;;;;;;4953132;28;20043;-79
2022/06/18 03:54:22;;;;;;;4.65;4.25;;;12.70;99.90;;;;;;4938386;29;20039;-80
2022/06/18 03:56:51;;;;;;;5.25;4.03;;;12.80;99.90;;;;;;4954926;29;20051;-79
2022/06/18 03:59:22;;;;;;;4.43;3.63;;;12.90;99.90;;;;;;4937689;29;20043;-79
2022/06/18 04:01:52;;;;;;;3.80;3.50;;;12.90;99.90;;;;;;4937555;29;20055;-80
2022/06/18 04:04:23;;;;;;;3.78;3.47;;;13.00;99.90;;;;;;4938604;29;20043;-79
2022/06/18 04:06:55;;;;;;;3.78;3.47;;;13.00;99.90;;;;;;4914518;29;20047;-79
2022/06/18 04:09:43;;;;;;;5.38;4.18;;;13.10;99.90;;;;;;4954768;28;20394;-79
2022/06/18 04:12:18;;;;;;;5.25;3.88;;;13.20;99.90;;;;;;4936568;29;20397;-79
2022/06/18 04:15:05;;;;;;;3.63;3.33;;;13.30;99.90;;;;;;4937915;29;20155;-79
2022/06/18 04:17:42;;;;;;;4.47;3.13;;;13.40;99.90;;;;;;4953617;29;20404;-80
2022/06/18 04:20:23;;;;;;;7.15;5.03;;;13.40;99.90;;;;;;4933938;29;20054;-80
2022/06/18 04:22:51;;;;;;;4.20;3.80;;;13.40;99.90;;;;;;4937343;29;20047;-80
2022/06/18 04:25:21;;;;;;;5.95;4.22;;;13.50;99.90;;;;;;4957798;28;20512;-80
2022/06/18 04:27:50;;;;;;;10.35;4.30;;;13.70;99.90;;;;;;4971310;28;20047;-80
2022/06/18 04:30:19;;;;;;;3.42;3.13;;;13.90;99.90;;;;;;4956735;28;20050;-80
2022/06/18 04:32:57;;;;;;;5.05;3.58;;;13.90;99.90;;;;;;4939955;28;20740;-79
2022/06/18 04:35:25;;;;;;;5.60;4.43;;;13.80;99.90;;;;;;4937381;29;20409;-80
2022/06/18 04:38:10;;;;;;;3.88;3.58;;;13.70;99.90;;;;;;4947279;28;20070;-80
2022/06/18 04:41:04;;;;;;;4.93;3.40;;;13.70;99.90;;;;;;4942206;28;20063;-80
2022/06/18 04:43:37;;;;;;;4.22;3.83;;;13.80;99.90;;;;;;4952861;28;20047;-80
2022/06/18 04:46:05;;;;;;;5.25;4.75;;;13.90;99.90;;;;;;4923193;28;20408;-80
2022/06/18 04:48:33;;;;;;;3.40;3.10;;;14.00;99.90;;;;;;4956393;28;20062;-85
2022/06/18 04:51:08;;;;;;;4.10;3.70;;;14.10;99.90;;;;;;4948040;28;20113;-80
2022/06/18 05:15:20;;;;;;;4.22;3.90;;;15.50;99.90;;;;;;4952371;28;20062;-79
2022/06/18 05:17:50;;;;;;;4.75;3.63;;;15.70;99.90;;;;;;4920852;29;20043;-78
2022/06/18 05:20:23;;;;;;;4.47;3.28;;;15.90;99.90;;;;;;4952249;29;20136;-79
2022/06/18 05:22:58;;;;;;;5.30;4.15;;;16.00;99.90;;;;;;4965452;28;20401;-78
2022/06/18 05:25:25;;;;;;;4.13;3.83;;;16.20;99.90;;;;;;4973116;28;20050;-79
2022/06/18 05:27:54;;;;;;;4.90;3.95;;;16.30;99.90;;;;;;4971525;28;20050;-78
2022/06/18 05:30:31;;;;;;;3.50;3.25;;;16.50;99.90;;;;;;4953942;28;20043;-78
2022/06/18 05:33:03;;;;;;;3.70;3.40;;;16.60;99.90;;;;;;4939569;28;20050;-78
2022/06/18 05:35:36;;;;;;;6.25;4.05;;;16.80;99.90;;;;;;4971572;28;20634;-79
2022/06/18 05:38:04;;;;;;;4.38;3.47;;;16.90;99.90;;;;;;4951550;28;20043;-79
2022/06/18 05:40:33;;;;;;;4.60;4.20;;;16.90;99.90;;;;;;4959109;28;20042;-79
2022/06/18 05:48:15;;;;;;;16.45;7.05;;;17.10;99.90;;;;;;4972077;28;20031;-79
2022/06/18 05:50:45;;;;;;;3.58;3.38;;;17.30;99.90;;;;;;4955188;28;20050;-79
2022/06/18 05:58:16;;;;;;;3.88;3.58;;;17.50;99.90;;;;;;4953486;28;20029;-79
2022/06/18 06:01:49;;;;;;;4.25;3.85;;;17.60;99.90;;;;;;4940292;28;20035;-78
2022/06/18 06:05:49;;;;;;;3.13;2.92;;;17.80;99.90;;;;;;4964009;28;20114;-79
2022/06/18 06:08:17;;;;;;;3.25;2.90;;;18.00;99.90;;;;;;4938427;28;20062;-79
2022/06/18 06:13:32;;;;;;;3.83;3.53;;;18.20;99.90;;;;;;4954908;28;20471;-79
2022/06/18 06:16:00;;;;;;;3.38;3.08;;;18.30;99.90;;;;;;4971966;28;20055;-79
2022/06/18 06:18:29;;;;;;;4.32;3.92;;;18.40;99.90;;;;;;4954199;28;20047;-79
2022/06/18 06:20:59;;;;;;;3.92;3.58;;;18.50;99.90;;;;;;4972033;28;20182;-79
2022/06/18 06:23:28;;;;;;;3.85;3.55;;;18.60;99.90;;;;;;4971520;28;20046;-79
2022/06/18 06:25:56;;;;;;;4.35;3.95;;;18.60;99.90;;;;;;4959986;28;20524;-79
2022/06/18 06:28:27;;;;;;;5.65;5.10;;;18.60;99.90;;;;;;4951590;28;20051;-79
2022/06/18 06:30:56;;;;;;;3.67;3.38;;;18.70;99.90;;;;;;4971218;28;20412;-79
2022/06/18 06:33:24;;;;;;;11.82;4.28;;;18.70;99.90;;;;;;4988202;28;20519;-78
2022/06/18 06:35:54;;;;;;;4.95;3.55;;;18.80;99.90;;;;;;4974368;28;20035;-79
2022/06/18 06:38:22;;;;;;;5.07;4.53;;;18.90;99.90;;;;;;4967417;28;20046;-79
2022/06/18 06:40:50;;;;;;;5.05;4.20;;;19.00;99.90;;;;;;4969076;28;20043;-79
2022/06/18 06:43:18;;;;;;;3.53;3.33;;;19.10;99.90;;;;;;4970245;28;20047;-79
2022/06/18 06:45:46;;;;;;;4.28;3.47;;;19.10;99.90;;;;;;4977321;28;20399;-79
2022/06/18 06:48:14;;;;;;;7.03;3.72;;;19.30;99.90;;;;;;4970516;28;20043;-80
2022/06/18 06:50:43;;;;;;;6.38;5.03;;;19.20;99.90;;;;;;4970847;28;20047;-79
2022/06/18 06:53:11;;;;;;;5.18;4.75;;;19.10;99.90;;;;;;4970444;28;20046;-80
2022/06/18 07:00:37;;;;;;;5.05;4.38;;;19.40;99.90;;;;;;4980643;28;20043;-80
2022/06/18 07:03:05;;;;;;;5.32;4.53;;;19.60;99.90;;;;;;4986690;28;20048;-82
2022/06/18 07:05:33;;;;;;;4.35;3.97;;;19.70;99.90;;;;;;4969330;28;20042;-84
2022/06/18 07:08:01;;;;;;;4.22;3.85;;;19.70;99.90;;;;;;4969053;28;20050;-80
2022/06/18 07:10:31;;;;;;;4.72;3.95;;;19.80;99.90;;;;;;4990654;28;20043;-78
2022/06/18 07:12:59;;;;;;;4.10;3.78;;;20.00;99.90;;;;;;4987665;28;20050;-81
2022/06/18 07:15:27;;;;;;;4.45;4.07;;;20.10;99.90;;;;;;4946650;28;20399;-84
2022/06/18 07:17:57;;;;;;;5.68;3.20;;;20.20;99.90;;;;;;4950852;28;20051;-83
2022/06/18 07:20:26;;;;;;;2.85;2.65;;;20.30;99.90;;;;;;4985007;28;20043;-84
2022/06/18 07:22:58;;;;;;;7.47;4.50;;;20.40;99.90;;;;;;4966509;28;20392;-87
2022/06/18 07:25:29;;;;;;;5.90;2.90;;;20.50;99.90;;;;;;4962175;28;20051;-82
2022/06/18 07:27:57;;;;;;;3.53;2.40;;;20.80;99.90;;;;;;4969889;28;20042;-78
2022/06/18 07:30:26;;;;;;;3.70;2.70;;;21.00;99.90;;;;;;4971090;28;20039;-81
2022/06/18 07:32:54;;;;;;;2.38;2.17;;;21.10;99.90;;;;;;4957199;28;20047;-80
2022/06/18 07:35:27;;;;;;;4.15;2.55;;;21.30;99.90;;;;;;4952631;28;20046;-79
2022/06/18 07:37:58;;;;;;;2.25;1.73;;;21.50;99.90;;;;;;4982651;28;20042;-82
2022/06/18 07:40:33;;;;;;;2.40;2.20;;;21.80;99.90;;;;;;4986111;28;20039;-81
2022/06/18 07:43:03;;;;;;;5.55;2.55;;;21.90;99.90;;;;;;4971051;28;20523;-82
2022/06/18 07:45:32;;;;;;;3.40;2.47;;;21.80;99.90;;;;;;4971324;28;20395;-82
2022/06/18 07:48:00;;;;;;;2.67;2.47;;;21.80;99.90;;;;;;4970405;28;20290;-82
2022/06/18 07:50:29;;;;;;;2.33;2.22;;;21.90;99.90;;;;;;4971167;28;20074;-82
2022/06/18 07:52:57;;;;;;;2.75;2.55;;;22.00;99.90;;;;;;4970901;28;20043;-83
2022/06/18 07:55:27;;;;;;;2.78;2.58;;;22.00;99.90;;;;;;4953568;28;20039;-82
2022/06/18 07:57:55;;;;;;;2.93;2.40;;;22.00;99.90;;;;;;4968529;28;20054;-81
2022/06/18 08:00:23;;;;;;;2.13;2.03;;;22.00;99.90;;;;;;4953657;28;20051;-80
2022/06/18 08:02:51;;;;;;;6.78;2.10;;;22.20;99.90;;;;;;4953025;28;20038;-81
2022/06/18 08:05:27;;;;;;;6.72;2.72;;;22.40;99.90;;;;;;4969738;28;20065;-80
2022/06/18 08:07:55;;;;;;;2.65;2.45;;;22.60;99.90;;;;;;4984794;28;20046;-80
2022/06/18 08:10:48;;;;;;;4.32;3.30;;;22.70;99.90;;;;;;4969956;28;20047;-81
2022/06/18 08:13:16;;;;;;;4.18;2.53;;;22.90;99.90;;;;;;4951516;29;20059;-80
2022/06/18 08:15:49;;;;;;;3.85;2.83;;;23.10;99.90;;;;;;4968650;28;20496;-82
2022/06/18 08:18:20;;;;;;;2.88;2.67;;;23.10;99.90;;;;;;4969018;28;20045;-82
2022/06/18 08:21:08;;;;;;;3.33;3.03;;;23.30;99.90;;;;;;4969304;28;20050;-79
2022/06/18 08:23:37;;;;;;;2.28;2.08;;;23.30;99.90;;;;;;4952736;28;20298;-80
2022/06/18 08:26:07;;;;;;;4.40;2.60;;;23.20;99.90;;;;;;4970073;28;20400;-79
2022/06/18 08:28:37;;;;;;;3.65;3.35;;;23.20;99.90;;;;;;4973245;28;20050;-79
2022/06/18 08:31:08;;;;;;;3.45;2.90;;;23.20;99.90;;;;;;4970086;28;20039;-79
2022/06/18 08:33:36;;;;;;;2.88;2.47;;;23.30;99.90;;;;;;4973510;28;20046;-80
2022/06/18 08:36:08;;;;;;;3.42;3.13;;;23.30;99.90;;;;;;4986719;28;20051;-81
2022/06/18 08:38:39;;;;;;;2.55;2.35;;;23.40;99.90;;;;;;4972505;28;20057;-80
2022/06/18 08:41:22;;;;;;;2.60;2.40;;;23.50;99.90;;;;;;4973929;28;20047;-80
2022/06/18 08:44:14;;;;;;;4.47;2.42;;;23.60;99.90;;;;;;4973596;28;20286;-80
2022/06/18 08:47:19;;;;;;;2.28;2.08;;;23.50;99.90;;;;;;4953310;29;20102;-80
2022/06/18 08:50:06;;;;;;;2.05;1.95;;;23.70;99.90;;;;;;4968235;28;20050;-82
2022/06/18 08:52:52;;;;;;;2.58;2.38;;;23.90;99.90;;;;;;4970678;28;20038;-80
2022/06/18 08:55:44;;;;;;;1.95;1.85;;;23.90;99.90;;;;;;4973791;28;20050;-80
2022/06/18 08:58:17;;;;;;;7.13;2.47;;;23.80;99.90;;;;;;4971204;28;20511;-81
2022/06/18 09:00:47;;;;;;;3.00;2.70;;;23.90;99.90;;;;;;4924951;28;20050;-83
2022/06/18 09:03:22;;;;;;;;;;;23.90;99.90;;;;;;4946010;28;20066;-81
2022/06/18 09:06:16;;;;;;;3.60;2.30;;;23.90;99.90;;;;;;4939818;28;19933;-80
2022/06/18 09:09:10;;;;;;;2.72;2.58;;;24.10;99.90;;;;;;4970418;28;20074;-81
2022/06/18 09:12:06;;;;;;;1.83;1.73;;;24.30;99.90;;;;;;4963801;28;20050;-80
2022/06/18 09:14:54;;;;;;;4.90;2.15;;;24.20;99.90;;;;;;4921305;29;20063;-80
2022/06/18 09:17:37;;;;;;;3.28;1.65;;;24.20;99.90;;;;;;4971976;28;20046;-81
2022/06/18 09:20:20;;;;;;;2.17;1.70;;;24.20;99.90;;;;;;4972658;28;20051;-81
2022/06/18 09:22:53;;;;;;;8.13;2.30;;;24.10;99.90;;;;;;4969355;28;20035;-80
2022/06/18 09:25:28;;;;;;;2.30;2.20;;;24.20;99.90;;;;;;4973146;28;20388;-81
2022/06/18 09:28:03;;;;;;;2.15;2.05;;;24.30;99.90;;;;;;4971259;28;20605;-81
2022/06/18 09:30:55;;;;;;;2.78;2.58;;;24.40;99.90;;;;;;4939784;28;20400;-82
2022/06/18 09:33:32;;;;;;;1.40;1.27;;;24.40;99.90;;;;;;4973277;28;20057;-80
2022/06/18 09:36:19;;;;;;;3.25;1.60;;;24.50;99.90;;;;;;4951689;28;20055;-81
2022/06/18 09:38:52;;;;;;;1.25;1.25;;;24.50;99.90;;;;;;4937394;28;20052;-80
2022/06/18 09:41:25;;;;;;;2.38;1.88;;;24.60;99.90;;;;;;4955491;28;20053;-81
2022/06/18 09:44:10;;;;;;;6.10;1.52;;;24.60;99.90;;;;;;4971867;28;20043;-80
2022/06/18 09:46:44;;;;;;;1.73;1.08;;;24.70;99.90;;;;;;4972443;28;20039;-80
2022/06/18 09:49:12;;;;;;;16.80;2.50;;;24.60;95.20;;;;;;4971300;28;20444;-80
2022/06/18 09:51:54;;;;;;;2.75;1.27;;;24.60;99.90;;;;;;4970808;28;20047;-83
2022/06/18 09:54:28;;;;;;;1.55;1.45;;;24.70;99.90;;;;;;4955041;28;20335;-83
2022/06/18 09:57:00;;;;;;;1.15;1.05;;;24.80;99.00;;;;;;4972757;28;20058;-83
2022/06/18 09:59:34;;;;;;;1.02;1.02;;;25.00;94.30;;;;;;4936755;28;20523;-83
2022/06/18 10:02:14;;;;;;;1.10;1.00;;;25.10;94.90;;;;;;4945515;28;20043;-83
2022/06/18 10:07:32;;;;;;;1.30;1.20;;;25.20;94.70;;;;;;4919045;29;20066;-83
2022/06/18 10:10:09;;;;;;;1.30;1.30;;;25.20;93.60;;;;;;4934298;28;20047;-83
2022/06/18 10:12:42;;;;;;;6.22;1.40;;;25.20;98.70;;;;;;4954714;28;20051;-83
2022/06/18 10:15:12;;;;;;;1.02;0.93;;;25.20;97.10;;;;;;4954514;28;20043;-82
2022/06/18 10:17:58;;;;;;;1.98;1.60;;;25.20;95.70;;;;;;4955389;28;20859;-82
2022/06/18 10:20:38;;;;;;;1.60;1.50;;;25.20;92.30;;;;;;4969204;28;20076;-83
2022/06/18 10:23:38;;;;;;;1.38;1.27;;;25.20;92.80;;;;;;4938623;28;20512;-83
2022/06/18 10:26:35;;;;;;;1.60;1.50;;;25.30;98.10;;;;;;4945023;28;20054;-83
2022/06/18 10:29:29;;;;;;;1.30;1.20;;;25.50;97.10;;;;;;4970806;28;20069;-82
2022/06/18 10:32:20;;;;;;;11.85;2.42;;;25.60;98.10;;;;;;4950426;29;20050;-83
2022/06/18 10:35:07;;;;;;;6.88;1.67;;;25.60;97.60;;;;;;4950983;28;20431;-82
2022/06/18 10:37:39;;;;;;;1.50;1.35;;;25.70;98.00;;;;;;4968343;28;20062;-80
2022/06/18 10:40:30;;;;;;;2.58;1.60;;;25.90;97.40;;;;;;4950480;28;20047;-82
2022/06/18 10:43:07;;;;;;;3.78;1.80;;;25.90;93.90;;;;;;4983449;28;20066;-81
2022/06/18 10:45:47;;;;;;;2.63;2.38;;;25.90;94.00;;;;;;4971687;28;20062;-81
2022/06/18 10:48:22;;;;;;;1.52;1.42;;;25.90;99.90;;;;;;4963145;28;20050;-81
2022/06/18 10:50:53;;;;;;;1.70;1.60;;;26.00;98.00;;;;;;4953677;28;20049;-80
2022/06/18 10:53:24;;;;;;;4.07;1.48;;;26.10;95.80;;;;;;4971849;28;20392;-83
2022/06/18 10:56:06;;;;;;;1.60;1.50;;;26.30;97.10;;;;;;4977521;28;20519;-81
2022/06/18 10:58:34;;;;;;;1.73;1.63;;;26.50;93.30;;;;;;4970554;28;20704;-81
2022/06/18 11:01:13;;;;;;;1.58;1.45;;;26.50;97.10;;;;;;4954918;28;20057;-83
2022/06/18 11:03:56;;;;;;;2.00;1.63;;;26.60;97.20;;;;;;4971156;28;20046;-82
2022/06/18 11:06:25;;;;;;;2.97;1.65;;;26.50;95.90;;;;;;4960811;28;20173;-82
2022/06/18 11:08:56;;;;;;;1.58;1.48;;;26.50;95.60;;;;;;4970261;28;20054;-82
2022/06/18 11:11:30;;;;;;;12.20;2.20;;;26.60;97.60;;;;;;4963747;28;20054;-82
2022/06/18 11:14:31;;;;;;;2.28;1.65;;;26.70;97.00;;;;;;4969120;28;20560;-82
2022/06/18 11:17:31;;;;;;;3.35;1.40;;;26.80;95.90;;;;;;4943027;28;20050;-81
2022/06/18 11:20:09;;;;;;;1.95;1.85;;;26.80;97.00;;;;;;4982956;28;20051;-81
2022/06/18 11:22:38;;;;;;;1.73;1.63;;;26.90;98.80;;;;;;4968762;28;20508;-81
2022/06/18 11:25:28;;;;;;;1.73;1.63;;;27.00;97.10;;;;;;4968216;28;20054;-81
2022/06/18 11:28:01;;;;;;;1.77;1.50;;;26.90;99.20;;;;;;4959765;28;20065;-82
2022/06/18 11:30:42;;;;;;;1.52;1.42;;;26.90;98.10;;;;;;4967982;28;20053;-82
2022/06/18 11:33:19;;;;;;;1.95;1.85;;;26.90;94.50;;;;;;4985260;28;20061;-82
2022/06/18 11:35:50;;;;;;;1.75;1.63;;;26.80;93.50;;;;;;4985632;28;20042;-82
2022/06/18 11:38:32;;;;;;;1.60;1.50;;;26.90;99.40;;;;;;4965042;28;20035;-82
2022/06/18 11:41:31;;;;;;;1.95;1.35;;;27.00;98.00;;;;;;4968872;28;20054;-82
2022/06/18 11:44:07;;;;;;;1.90;1.80;;;27.00;97.30;;;;;;4955505;28;20047;-80
2022/06/18 11:46:58;;;;;;;1.70;1.50;;;27.00;97.40;;;;;;4965705;28;20404;-80
2022/06/18 11:49:33;;;;;;;1.90;1.80;;;27.10;99.90;;;;;;4951528;29;20055;-80
2022/06/18 11:52:14;;;;;;;1.42;1.25;;;27.10;97.30;;;;;;4961286;28;20050;-81
2022/06/18 11:55:11;;;;;;;2.75;2.10;;;27.20;94.70;;;;;;4953592;28;20043;-80
2022/06/18 11:57:46;;;;;;;1.80;1.70;;;27.30;95.20;;;;;;4970003;28;20058;-80
2022/06/18 12:00:51;;;;;;;1.70;1.60;;;27.30;95.90;;;;;;4970649;28;20054;-82
2022/06/18 12:03:40;;;;;;;1.83;1.73;;;27.30;93.90;;;;;;4940215;29;20047;-81
2022/06/18 12:06:08;;;;;;;1.25;1.20;;;27.40;96.80;;;;;;4958026;28;20480;-80
2022/06/18 12:08:36;;;;;;;6.72;1.83;;;27.40;96.60;;;;;;4989737;28;20051;-80
2022/06/18 12:11:24;;;;;;;1.70;1.60;;;27.40;97.70;;;;;;4988715;28;20077;-85
2022/06/18 12:14:08;;;;;;;5.50;2.40;;;27.40;96.70;;;;;;4989330;28;20046;-85
2022/06/18 12:16:51;;;;;;;1.50;1.40;;;27.50;99.90;;;;;;4938303;29;20043;-85
2022/06/18 12:19:43;;;;;;;11.05;2.50;;;27.60;98.40;;;;;;4963845;28;20484;-86
2022/06/18 12:22:37;;;;;;;3.05;2.10;;;27.70;97.00;;;;;;4969335;28;20870;-85
2022/06/18 12:25:47;;;;;;;1.65;1.55;;;27.70;97.10;;;;;;4954402;28;20408;-84
2022/06/18 12:28:25;;;;;;;11.57;2.22;;;27.80;98.50;;;;;;4953929;29;20051;-84
2022/06/18 12:31:29;;;;;;;1.83;1.45;;;27.80;97.80;;;;;;4937505;29;20760;-85
2022/06/18 12:34:22;;;;;;;2.05;1.88;;;27.80;97.10;;;;;;4954724;29;20489;-84
2022/06/18 12:36:55;;;;;;;3.35;1.40;;;27.80;99.10;;;;;;4934496;29;20062;-89
2022/06/18 12:39:37;;;;;;;1.10;1.10;;;27.80;93.70;;;;;;4950584;28;20515;-87
2022/06/18 12:42:22;;;;;;;1.63;1.52;;;27.90;92.80;;;;;;4919767;29;20060;-85
2022/06/18 12:45:10;;;;;;;1.77;1.67;;;28.00;94.10;;;;;;4938264;29;20055;-84
2022/06/18 12:47:56;;;;;;;2.75;2.25;;;28.00;96.10;;;;;;4920702;29;20047;-84
2022/06/18 12:50:36;;;;;;;4.22;2.45;;;28.10;97.30;;;;;;4954251;29;20043;-86
2022/06/18 12:53:15;;;;;;;2.30;2.10;;;28.10;92.80;;;;;;4923325;29;20048;-85
2022/06/18 12:55:50;;;;;;;3.72;2.10;;;28.20;97.40;;;;;;4936409;29;20052;-85
2022/06/18 12:58:40;;;;;;;1.25;1.15;;;28.30;94.80;;;;;;4936152;29;20047;-85
2022/06/18 13:01:19;;;;;;;1.92;1.65;;;28.20;96.70;;;;;;4951976;29;20054;-84
2022/06/18 13:04:10;;;;;;;2.22;1.70;;;28.20;94.00;;;;;;4936677;29;20047;-80
2022/06/18 13:07:11;;;;;;;;;;;28.10;94.40;;;;;;4936262;29;20055;-80
2022/06/18 13:10:05;;;;;;;1.80;1.70;;;28.10;98.30;;;;;;4937660;29;19926;-82
2022/06/18 13:12:58;;;;;;;2.88;1.77;;;28.20;96.90;;;;;;4932086;29;20375;-82
2022/06/18 13:15:37;;;;;;;4.82;1.83;;;28.20;93.00;;;;;;4917868;29;20064;-82
2022/06/18 13:18:12;;;;;;;1.80;1.70;;;28.20;95.50;;;;;;4934726;28;20059;-82
2022/06/18 13:20:47;;;;;;;2.35;1.95;;;28.20;96.00;;;;;;4954318;29;20043;-83
2022/06/18 13:28:55;;;;;;;2.10;1.67;;;28.40;93.90;;;;;;4972656;28;20050;-84
2022/06/18 13:31:42;;;;;;;2.03;1.88;;;28.40;94.70;;;;;;4973196;28;20046;-83
2022/06/18 13:34:45;;;;;;;4.85;2.17;;;28.40;96.20;;;;;;4973018;28;20492;-83
2022/06/18 13:38:14;;;;;;;12.77;2.13;;;28.50;92.40;;;;;;4955617;28;20483;-90
2022/06/18 13:41:44;;;;;;;7.60;2.00;;;28.60;95.00;;;;;;4938979;28;20047;-90
2022/06/18 13:44:47;;;;;;;6.05;1.65;;;28.70;95.80;;;;;;4934436;28;20508;-81
2022/06/18 13:47:48;;;;;;;8.77;2.38;;;28.70;93.70;;;;;;4972714;28;20051;-82
2022/06/18 13:50:32;;;;;;;1.85;1.67;;;28.70;96.60;;;;;;4955167;28;20043;-83
2022/06/18 13:53:01;;;;;;;5.53;2.40;;;28.80;95.80;;;;;;4973823;28;20058;-82
2022/06/18 13:55:43;;;;;;;5.05;2.30;;;28.80;93.80;;;;;;4975641;28;20374;-83
2022/06/18 13:58:31;;;;;;;1.98;1.80;;;28.70;92.80;;;;;;4971806;28;20050;-83
2022/06/18 14:01:05;;;;;;;3.28;2.33;;;28.70;93.50;;;;;;4973197;28;20050;-84
2022/06/18 14:03:48;;;;;;;;;;;28.80;95.60;;;;;;4972054;28;20547;-84
2022/06/18 14:06:19;;;;;;;2.20;2.00;;;28.80;96.10;;;;;;4945078;28;19922;-84
2022/06/18 14:09:10;;;;;;;2.35;1.67;;;28.90;94.10;;;;;;4971360;28;20054;-83
2022/06/18 14:11:43;;;;;;;4.45;2.28;;;28.90;93.80;;;;;;4971626;28;20046;-83
2022/06/18 14:14:24;;;;;;;3.47;2.05;;;28.90;96.40;;;;;;4972117;28;20039;-83
2022/06/18 14:17:15;;;;;;;4.28;2.05;;;28.90;91.90;;;;;;4972814;28;20062;-83
2022/06/18 14:20:00;;;;;;;6.63;2.03;;;28.90;92.30;;;;;;4971556;28;20058;-83
2022/06/18 14:22:30;;;;;;;1.73;1.63;;;28.90;93.60;;;;;;4971775;28;20050;-83
2022/06/18 14:25:01;;;;;;;2.88;0.98;;;28.90;91.50;;;;;;4972546;28;20055;-82
2022/06/18 14:27:41;;;;;;;3.60;2.28;;;28.90;91.90;;;;;;4971439;28;20054;-83
2022/06/18 14:30:27;;;;;;;1.90;1.67;;;28.90;91.00;;;;;;4950488;28;20055;-83
2022/06/18 14:33:08;;;;;;;6.00;1.50;;;28.90;90.80;;;;;;4937455;28;20051;-83
2022/06/18 14:35:42;;;;;;;1.42;1.30;;;28.90;92.40;;;;;;4967619;28;20054;-84
2022/06/18 14:38:11;;;;;;;1.90;1.70;;;28.90;91.40;;;;;;4963503;28;20046;-84
2022/06/18 14:43:49;;;;;;;2.03;1.80;;;28.90;91.00;;;;;;4954100;28;20053;-84
2022/06/18 14:46:32;;;;;;;2.00;1.67;;;29.00;90.90;;;;;;4980742;28;20052;-84
2022/06/18 14:49:26;;;;;;;2.60;2.30;;;29.10;92.30;;;;;;4951013;28;20373;-85
2022/06/18 14:52:24;;;;;;;4.97;2.08;;;29.10;89.70;;;;;;4965351;28;20042;-83
2022/06/18 14:55:30;;;;;;;2.70;1.90;;;29.10;91.00;;;;;;4969307;28;20046;-83
2022/06/18 14:58:19;;;;;;;2.55;1.50;;;28.90;86.50;;;;;;4959936;28;21238;-84
2022/06/18 15:00:54;;;;;;;3.03;1.75;;;28.90;90.20;;;;;;4969656;28;20668;-83
2022/06/18 15:03:34;;;;;;;1.48;1.38;;;28.90;90.70;;;;;;4958304;28;20046;-83
2022/06/18 15:11:07;;;;;;;7.35;1.98;;;29.10;85.20;;;;;;4971016;28;20042;-83
2022/06/18 15:14:10;;;;;;;1.90;1.45;;;29.20;91.30;;;;;;4971408;28;20062;-83
2022/06/18 15:22:20;;;;;;;3.55;1.98;;;29.10;88.10;;;;;;4950332;29;20046;-83
2022/06/18 15:25:53;;;;;;;5.32;2.45;;;29.00;90.30;;;;;;4957774;28;20047;-83
2022/06/18 15:29:52;;;;;;;6.50;1.50;;;29.10;89.80;;;;;;4931620;29;20050;-83
2022/06/18 15:32:25;;;;;;;;;;;29.10;87.00;;;;;;4931636;29;20067;-83
2022/06/18 15:35:05;;;;;;;4.28;1.52;;;29.10;89.20;;;;;;4932526;29;19923;-83
2022/06/18 15:37:48;;;;;;;3.27;2.10;;;29.20;88.40;;;;;;4932901;29;20047;-83
2022/06/18 15:40:27;;;;;;;12.98;3.30;;;29.20;89.40;;;;;;4931563;29;20060;-83
2022/06/18 15:42:58;;;;;;;4.90;1.90;;;29.20;90.90;;;;;;4934365;29;20684;-83
2022/06/18 15:45:49;;;;;;;2.97;1.80;;;29.30;91.70;;;;;;4936731;29;20050;-82
2022/06/18 15:48:21;;;;;;;7.07;1.80;;;29.30;91.70;;;;;;4934679;29;20048;-83
2022/06/18 15:50:52;;;;;;;3.20;2.50;;;29.30;90.60;;;;;;4935075;29;20036;-83